Time;durP1;ratioP1;P1;durP2;ratioP2;P2;SDS_P1;SDS_P2;PMS_P1;PMS_P2;Temp;Humidity;BMP_temperature;BMP_pressure;BME280_temperature;BME280_humidity;BME280_pressure;Samples;Min_cycle;Max_cycle;Signal;HPM_P1;HPM_P2
2023/04/21 00:01:17;;;;;;;3.85;1.83;;;14.70;99.90;;;;;;5111284;28;20326;-72
2023/04/21 00:03:43;;;;;;;6.35;2.20;;;14.70;99.90;;;;;;5111808;28;20027;-72
2023/04/21 00:06:09;;;;;;;8.52;2.25;;;14.70;99.90;;;;;;5113768;28;20024;-72
2023/04/21 00:08:39;;;;;;;6.17;2.00;;;14.70;99.90;;;;;;5115208;28;20046;-73
2023/04/21 00:11:09;;;;;;;7.95;2.47;;;14.60;99.90;;;;;;5113525;28;20291;-72
2023/04/21 00:13:35;;;;;;;8.27;2.60;;;14.70;99.90;;;;;;5113265;28;20114;-73
2023/04/21 00:16:02;;;;;;;6.60;2.20;;;14.70;99.90;;;;;;5114456;28;20052;-72
2023/04/21 00:18:28;;;;;;;7.53;2.13;;;14.70;99.90;;;;;;5113586;28;20089;-71
2023/04/21 00:20:54;;;;;;;7.77;2.33;;;14.70;99.90;;;;;;5113515;28;20177;-73
2023/04/21 00:23:20;;;;;;;7.38;1.88;;;14.70;99.90;;;;;;5113454;28;20283;-73
2023/04/21 00:25:46;;;;;;;8.52;1.90;;;14.80;99.90;;;;;;5114793;28;20024;-72
2023/04/21 00:28:12;;;;;;;5.00;1.97;;;14.80;99.90;;;;;;5114658;28;20034;-73
2023/04/21 00:30:39;;;;;;;4.30;1.80;;;14.80;99.90;;;;;;5114752;28;20076;-69
2023/04/21 00:33:06;;;;;;;6.55;1.70;;;14.80;99.90;;;;;;5114797;28;20034;-72
2023/04/21 00:35:32;;;;;;;7.70;2.25;;;14.80;99.90;;;;;;5114960;28;20055;-73
2023/04/21 00:37:58;;;;;;;5.07;1.93;;;14.80;99.90;;;;;;5114828;28;20032;-72
2023/04/21 00:40:24;;;;;;;3.67;1.60;;;14.80;99.90;;;;;;5114732;28;20019;-72
2023/04/21 00:42:50;;;;;;;4.43;1.67;;;14.70;99.90;;;;;;5114432;28;20062;-73
2023/04/21 00:45:16;;;;;;;7.47;1.40;;;14.60;99.90;;;;;;5114558;28;20693;-73
2023/04/21 00:47:42;;;;;;;4.60;1.20;;;14.60;99.90;;;;;;5114667;28;20463;-73
2023/04/21 00:50:09;;;;;;;4.77;1.60;;;14.70;99.90;;;;;;5114611;28;20131;-72
2023/04/21 00:52:39;;;;;;;3.75;1.35;;;14.60;99.90;;;;;;5112912;28;20081;-71
2023/04/21 00:55:06;;;;;;;5.80;1.88;;;14.60;99.90;;;;;;5114193;28;20416;-71
2023/04/21 00:57:34;;;;;;;4.78;1.67;;;14.60;99.90;;;;;;5114323;28;20086;-70
2023/04/21 01:00:01;;;;;;;3.90;1.42;;;14.50;99.90;;;;;;5100390;28;20088;-71
2023/04/21 01:02:28;;;;;;;5.80;1.42;;;14.50;99.90;;;;;;5114042;28;20050;-71
2023/04/21 01:04:54;;;;;;;6.23;1.97;;;14.50;99.90;;;;;;5114032;28;20024;-71
2023/04/21 01:07:21;;;;;;;5.85;1.83;;;14.50;99.90;;;;;;5112641;28;20020;-72
2023/04/21 01:09:47;;;;;;;5.68;1.65;;;14.40;99.90;;;;;;5114363;28;20086;-72
2023/04/21 01:12:14;;;;;;;8.50;1.90;;;14.50;99.90;;;;;;5113626;28;20527;-71
2023/04/21 01:14:40;;;;;;;4.47;1.52;;;14.50;99.90;;;;;;5113669;28;20039;-72
2023/04/21 01:17:07;;;;;;;7.70;1.25;;;14.50;99.90;;;;;;5113156;28;20035;-71
2023/04/21 01:19:38;;;;;;;6.20;1.67;;;14.50;99.90;;;;;;5113778;28;20144;-72
2023/04/21 01:22:09;;;;;;;9.48;1.80;;;14.50;99.90;;;;;;5113777;28;20457;-71
2023/04/21 01:24:44;;;;;;;4.68;1.38;;;14.50;99.90;;;;;;5113799;28;20103;-72
2023/04/21 01:27:15;;;;;;;5.25;1.55;;;14.50;99.90;;;;;;5113612;28;20072;-71
2023/04/21 01:29:42;;;;;;;3.35;1.25;;;14.50;99.90;;;;;;5113764;28;20337;-70
2023/04/21 01:32:18;;;;;;;5.00;1.42;;;14.40;99.90;;;;;;5113273;28;20035;-72
2023/04/21 01:34:46;;;;;;;7.93;1.73;;;14.30;99.90;;;;;;5113244;28;20062;-71
2023/04/21 01:37:15;;;;;;;10.70;2.00;;;14.10;99.90;;;;;;5113246;28;20039;-71
2023/04/21 01:39:44;;;;;;;6.47;1.70;;;13.90;99.90;;;;;;5113296;28;20077;-72
2023/04/21 01:42:11;;;;;;;3.85;1.60;;;13.90;99.90;;;;;;5112901;28;20445;-71
2023/04/21 01:44:38;;;;;;;5.45;1.70;;;13.80;99.90;;;;;;5113220;28;20028;-70
2023/04/21 01:47:05;;;;;;;6.00;1.50;;;13.80;99.90;;;;;;5113237;28;20024;-70
2023/04/21 01:49:32;;;;;;;5.28;1.45;;;13.70;99.90;;;;;;5113096;28;20514;-70
2023/04/21 01:51:58;;;;;;;8.07;1.50;;;13.70;99.90;;;;;;5112956;28;20044;-71
2023/04/21 01:54:24;;;;;;;6.77;1.70;;;13.70;99.90;;;;;;5113207;28;20024;-71
2023/04/21 01:56:50;;;;;;;6.97;1.75;;;13.70;99.90;;;;;;5112848;28;20023;-70
2023/04/21 01:59:16;;;;;;;6.00;1.63;;;13.70;99.90;;;;;;5112715;28;20024;-71
2023/04/21 02:01:42;;;;;;;5.30;1.77;;;13.70;99.90;;;;;;5112879;28;20100;-71
2023/04/21 02:04:08;;;;;;;5.97;1.20;;;13.70;99.90;;;;;;5112728;28;20023;-71
2023/04/21 02:06:34;;;;;;;4.53;2.05;;;13.60;99.90;;;;;;5112760;28;20054;-72
2023/04/21 02:09:00;;;;;;;8.52;1.52;;;13.70;99.90;;;;;;5111192;28;20028;-71
2023/04/21 02:11:26;;;;;;;6.03;1.40;;;13.80;99.90;;;;;;5111108;28;20130;-72
2023/04/21 02:13:54;;;;;;;4.77;1.40;;;13.90;99.90;;;;;;5111210;28;20130;-72
2023/04/21 02:16:24;;;;;;;5.75;1.77;;;14.00;99.90;;;;;;5112566;28;20051;-71
2023/04/21 02:18:55;;;;;;;6.57;1.88;;;14.00;99.90;;;;;;5112863;28;20059;-71
2023/04/21 02:21:22;;;;;;;3.70;1.40;;;14.00;99.90;;;;;;5112755;28;20057;-72
2023/04/21 02:23:54;;;;;;;4.18;1.38;;;14.00;99.90;;;;;;5112583;27;20034;-71
2023/04/21 02:26:20;;;;;;;7.72;1.70;;;13.90;99.90;;;;;;5112890;28;20026;-72
2023/04/21 02:28:47;;;;;;;4.33;1.33;;;13.90;99.90;;;;;;5112201;28;20440;-71
2023/04/21 02:31:13;;;;;;;8.10;1.77;;;13.90;99.90;;;;;;5112007;28;20020;-71
2023/04/21 02:33:39;;;;;;;5.43;1.40;;;13.90;99.90;;;;;;5112191;28;20020;-72
2023/04/21 02:36:05;;;;;;;6.30;1.95;;;13.90;99.90;;;;;;5112125;27;20016;-71
2023/04/21 02:38:31;;;;;;;3.80;1.30;;;13.80;99.90;;;;;;5110630;28;20028;-71
2023/04/21 02:40:57;;;;;;;5.93;1.60;;;13.70;99.90;;;;;;5111862;28;20976;-72
2023/04/21 02:43:24;;;;;;;5.25;1.50;;;13.70;99.90;;;;;;5111544;28;20051;-72
2023/04/21 02:45:50;;;;;;;4.95;1.45;;;13.80;99.90;;;;;;5110698;27;20020;-72
2023/04/21 02:48:21;;;;;;;6.43;1.45;;;13.80;99.90;;;;;;5111162;28;20059;-71
2023/04/21 02:50:49;;;;;;;6.68;1.23;;;13.80;99.90;;;;;;5111429;28;20028;-71
2023/04/21 02:53:15;;;;;;;3.92;1.40;;;13.70;99.90;;;;;;5111514;28;20104;-71
2023/04/21 02:55:42;;;;;;;4.35;1.67;;;13.60;99.90;;;;;;5111360;28;20024;-71
2023/04/21 02:58:08;;;;;;;5.80;1.50;;;13.60;99.90;;;;;;5112010;28;20027;-72
2023/04/21 03:00:34;;;;;;;6.05;1.50;;;13.60;99.90;;;;;;5112029;28;20028;-71
2023/04/21 03:03:00;;;;;;;5.47;1.80;;;13.50;99.90;;;;;;5111751;28;20023;-72
2023/04/21 03:05:26;;;;;;;5.03;1.42;;;13.50;99.90;;;;;;5111783;28;20258;-72
2023/04/21 03:07:52;;;;;;;7.13;1.50;;;13.50;99.90;;;;;;5112380;28;20494;-71
2023/04/21 03:10:18;;;;;;;4.33;1.60;;;13.50;99.90;;;;;;5112231;28;20020;-72
2023/04/21 03:12:44;;;;;;;4.97;1.60;;;13.50;99.90;;;;;;5111996;28;20038;-70
2023/04/21 03:15:13;;;;;;;4.40;1.45;;;13.50;99.90;;;;;;5110547;28;20024;-72
2023/04/21 03:17:42;;;;;;;5.50;1.75;;;13.50;99.90;;;;;;5112344;28;20335;-71
2023/04/21 03:20:10;;;;;;;4.95;1.27;;;13.50;99.90;;;;;;5112677;28;20039;-72
2023/04/21 03:22:37;;;;;;;4.32;1.58;;;13.60;99.90;;;;;;5112381;28;20151;-72
2023/04/21 03:25:04;;;;;;;4.70;1.45;;;13.60;99.90;;;;;;5112130;28;20024;-72
2023/04/21 03:27:32;;;;;;;8.65;1.80;;;13.60;99.90;;;;;;5112379;28;20031;-72
2023/04/21 03:29:58;;;;;;;4.50;1.60;;;13.70;99.90;;;;;;5112731;28;20034;-71
2023/04/21 03:32:24;;;;;;;5.53;1.60;;;13.60;99.90;;;;;;5112396;28;20059;-72
2023/04/21 03:34:50;;;;;;;5.45;1.52;;;13.60;99.90;;;;;;5112374;28;20024;-72
2023/04/21 03:37:16;;;;;;;7.50;1.65;;;13.60;99.90;;;;;;5112355;28;20039;-72
2023/04/21 03:39:43;;;;;;;6.90;1.95;;;13.50;99.90;;;;;;5111833;28;20103;-71
2023/04/21 03:42:09;;;;;;;4.07;1.45;;;13.50;99.90;;;;;;5112025;28;20071;-72
2023/04/21 03:44:35;;;;;;;4.13;1.50;;;13.50;99.90;;;;;;5111831;28;20016;-72
2023/04/21 03:47:03;;;;;;;4.80;1.73;;;13.60;99.90;;;;;;5112504;28;20027;-72
2023/04/21 03:49:32;;;;;;;5.70;1.35;;;13.50;99.90;;;;;;5111857;28;20048;-72
2023/04/21 03:51:58;;;;;;;7.03;1.73;;;13.50;99.90;;;;;;5112011;28;20035;-71
2023/04/21 03:54:24;;;;;;;10.60;1.90;;;13.50;99.90;;;;;;5112201;28;20065;-72
2023/04/21 03:56:50;;;;;;;6.88;1.75;;;13.50;99.90;;;;;;5112094;28;20121;-71
2023/04/21 03:59:16;;;;;;;8.35;1.83;;;13.50;99.90;;;;;;5111692;28;20034;-72
2023/04/21 04:01:42;;;;;;;6.68;1.60;;;13.50;99.90;;;;;;5093446;28;20065;-71
2023/04/21 04:04:08;;;;;;;4.20;1.33;;;13.50;99.90;;;;;;5112004;28;20148;-72
2023/04/21 04:06:34;;;;;;;6.68;1.90;;;13.50;99.90;;;;;;5112119;28;20145;-71
2023/04/21 04:09:03;;;;;;;7.07;2.20;;;13.60;99.90;;;;;;5112048;28;20098;-73
2023/04/21 04:11:30;;;;;;;9.00;1.90;;;13.60;99.90;;;;;;5111685;28;20169;-71
2023/04/21 04:13:56;;;;;;;5.20;1.63;;;13.60;99.90;;;;;;5111530;28;20472;-71
2023/04/21 04:16:22;;;;;;;7.68;1.83;;;13.70;99.90;;;;;;5110301;28;20019;-71
2023/04/21 04:18:55;;;;;;;9.70;2.67;;;13.70;99.90;;;;;;5112942;28;20038;-71
2023/04/21 04:21:22;;;;;;;9.15;2.35;;;13.60;99.90;;;;;;5112450;28;20471;-72
2023/04/21 04:23:52;;;;;;;10.57;2.47;;;13.60;99.90;;;;;;5112584;28;20016;-72
2023/04/21 04:26:21;;;;;;;7.80;2.20;;;13.60;99.90;;;;;;5112783;28;20073;-73
2023/04/21 04:28:47;;;;;;;6.43;2.08;;;13.70;99.90;;;;;;5112574;28;20387;-73
2023/04/21 04:31:13;;;;;;;6.83;1.97;;;13.80;99.90;;;;;;5112543;28;20020;-72
2023/04/21 04:33:43;;;;;;;5.53;1.90;;;13.80;99.90;;;;;;5112412;28;20116;-72
2023/04/21 04:36:10;;;;;;;7.43;1.92;;;13.90;99.90;;;;;;5111521;28;20023;-73
2023/04/21 04:38:37;;;;;;;6.82;1.80;;;13.90;99.90;;;;;;5112328;28;20051;-73
2023/04/21 04:41:03;;;;;;;3.15;1.40;;;13.90;99.90;;;;;;5112241;28;20508;-74
2023/04/21 04:43:35;;;;;;;;;;;13.90;99.90;;;;;;5091995;28;20078;-73
2023/04/21 04:46:02;;;;;;;6.57;1.80;;;13.90;99.90;;;;;;5092448;28;19904;-73
2023/04/21 04:48:29;;;;;;;8.15;1.95;;;13.70;99.90;;;;;;5092209;28;20103;-74
2023/04/21 04:50:55;;;;;;;8.07;1.80;;;13.70;99.90;;;;;;5091556;28;20070;-74
2023/04/21 04:53:21;;;;;;;5.00;1.60;;;13.70;99.90;;;;;;5096128;28;20040;-74
2023/04/21 04:55:49;;;;;;;7.80;1.83;;;13.80;99.90;;;;;;5095602;28;20026;-74
2023/04/21 04:58:15;;;;;;;4.97;1.73;;;13.90;99.90;;;;;;5095339;28;20035;-69
2023/04/21 05:00:41;;;;;;;6.20;2.20;;;13.90;99.90;;;;;;5097761;28;20016;-75
2023/04/21 05:03:07;;;;;;;6.30;1.60;;;13.90;99.90;;;;;;5115734;28;20293;-69
2023/04/21 05:05:33;;;;;;;7.25;1.63;;;13.90;99.90;;;;;;5116297;28;20065;-67
2023/04/21 05:07:59;;;;;;;10.10;1.90;;;13.90;99.90;;;;;;5116002;28;20020;-69
2023/04/21 05:10:25;;;;;;;5.63;1.95;;;13.90;99.90;;;;;;5115369;28;20265;-68
2023/04/21 05:12:51;;;;;;;6.17;1.73;;;13.90;99.90;;;;;;5115115;28;20031;-68
2023/04/21 05:15:18;;;;;;;9.47;1.73;;;14.00;99.90;;;;;;5113511;28;20433;-64
2023/04/21 05:17:44;;;;;;;5.05;1.63;;;14.00;99.90;;;;;;5115575;28;20023;-68
2023/04/21 05:20:11;;;;;;;6.93;1.80;;;14.10;99.90;;;;;;5115227;28;20019;-68
2023/04/21 05:22:37;;;;;;;4.90;1.85;;;14.20;99.90;;;;;;5115150;27;20019;-68
2023/04/21 05:25:04;;;;;;;5.63;1.90;;;14.30;99.90;;;;;;5115119;28;20080;-68
2023/04/21 05:27:31;;;;;;;5.13;1.55;;;14.40;99.90;;;;;;5114923;28;20046;-68
2023/04/21 05:29:57;;;;;;;9.45;3.55;;;14.40;99.90;;;;;;5114296;28;20438;-69
2023/04/21 05:32:23;;;;;;;6.60;2.22;;;14.50;99.90;;;;;;5114384;28;20046;-69
2023/04/21 05:34:49;;;;;;;9.13;2.60;;;14.60;99.90;;;;;;5114834;28;20024;-68
2023/04/21 05:37:15;;;;;;;12.93;3.00;;;14.60;99.90;;;;;;5114236;28;20140;-66
2023/04/21 05:39:41;;;;;;;8.73;2.70;;;14.60;99.90;;;;;;5114740;28;20024;-69
2023/04/21 05:42:10;;;;;;;8.23;3.53;;;14.80;99.90;;;;;;5114130;28;20338;-68
2023/04/21 05:44:36;;;;;;;6.05;2.03;;;14.80;99.90;;;;;;5112294;28;20020;-68
2023/04/21 05:47:06;;;;;;;10.32;2.67;;;14.80;99.90;;;;;;5113712;28;20397;-67
2023/04/21 05:49:32;;;;;;;4.88;1.70;;;14.80;99.90;;;;;;5113578;28;20448;-68
2023/04/21 05:51:59;;;;;;;7.60;2.00;;;14.90;99.90;;;;;;5111850;28;20054;-68
2023/04/21 05:54:26;;;;;;;7.68;1.70;;;15.00;99.90;;;;;;5113227;28;20145;-70
2023/04/21 05:56:52;;;;;;;5.78;1.65;;;15.10;99.90;;;;;;5113358;28;20146;-68
2023/04/21 05:59:18;;;;;;;7.03;2.23;;;15.00;99.90;;;;;;5111411;28;20079;-66
2023/04/21 06:01:44;;;;;;;9.47;3.00;;;15.10;99.90;;;;;;5112687;28;20108;-69
2023/04/21 06:04:10;;;;;;;14.23;3.17;;;15.30;99.90;;;;;;5113076;28;20032;-70
2023/04/21 06:06:37;;;;;;;7.80;2.05;;;15.30;99.90;;;;;;5112732;28;20265;-70
2023/04/21 06:09:04;;;;;;;7.80;2.20;;;15.40;99.90;;;;;;5113206;28;20097;-70
2023/04/21 06:11:30;;;;;;;7.93;2.28;;;15.60;99.90;;;;;;5113135;28;20612;-69
2023/04/21 06:13:58;;;;;;;9.68;2.15;;;15.80;99.90;;;;;;5113431;28;20039;-72
2023/04/21 06:16:25;;;;;;;7.57;2.10;;;16.00;99.90;;;;;;5112749;28;20114;-70
2023/04/21 06:18:52;;;;;;;;;;;16.30;99.90;;;;;;5113359;28;20471;-69
2023/04/21 06:21:18;;;;;;;5.25;1.70;;;16.50;99.90;;;;;;5112666;28;19904;-71
2023/04/21 06:23:44;;;;;;;6.85;1.60;;;16.90;99.90;;;;;;5111284;28;20482;-70
2023/04/21 06:26:10;;;;;;;9.18;1.98;;;17.30;99.90;;;;;;5113079;28;20024;-68
2023/04/21 06:28:38;;;;;;;7.95;1.98;;;18.10;99.90;;;;;;5112968;28;20320;-69
2023/04/21 06:31:04;;;;;;;8.25;1.55;;;18.90;99.90;;;;;;5112471;28;20095;-69
2023/04/21 06:33:30;;;;;;;8.07;1.70;;;19.50;99.90;;;;;;5113159;28;20505;-72
2023/04/21 06:35:56;;;;;;;6.65;1.52;;;19.60;99.90;;;;;;5113182;27;20020;-69
2023/04/21 06:38:25;;;;;;;7.65;1.70;;;20.50;99.90;;;;;;5112609;28;20039;-66
2023/04/21 06:40:51;;;;;;;8.57;1.60;;;20.10;99.90;;;;;;5112960;28;20098;-69
2023/04/21 06:43:17;;;;;;;8.13;1.45;;;19.70;99.90;;;;;;5112565;28;20027;-68
2023/04/21 06:45:43;;;;;;;7.20;1.65;;;19.90;99.90;;;;;;5112566;28;20024;-68
2023/04/21 06:48:09;;;;;;;6.28;1.48;;;21.10;99.90;;;;;;5111567;28;20047;-69
2023/04/21 06:50:35;;;;;;;8.00;1.65;;;21.00;99.90;;;;;;5111817;28;20027;-69
2023/04/21 06:53:01;;;;;;;4.50;1.17;;;21.30;99.90;;;;;;5111481;28;20032;-69
2023/04/21 06:55:27;;;;;;;5.85;1.45;;;20.60;99.90;;;;;;5111141;28;20030;-70
2023/04/21 06:57:53;;;;;;;7.18;1.52;;;20.10;99.90;;;;;;5111301;28;20034;-69
2023/04/21 07:00:20;;;;;;;6.72;1.60;;;20.10;99.90;;;;;;5111599;28;20055;-69
2023/04/21 07:02:46;;;;;;;9.35;1.55;;;20.10;99.90;;;;;;5111061;28;20035;-70
2023/04/21 07:05:12;;;;;;;5.97;1.33;;;20.00;99.90;;;;;;5112240;28;20024;-69
2023/04/21 07:07:38;;;;;;;9.60;1.55;;;19.60;99.90;;;;;;5111665;28;20458;-68
2023/04/21 07:10:04;;;;;;;8.95;1.75;;;19.60;99.90;;;;;;5111953;28;20541;-68
2023/04/21 07:12:31;;;;;;;6.47;1.42;;;20.20;99.90;;;;;;5111758;28;20111;-70
2023/04/21 07:14:57;;;;;;;6.22;1.58;;;21.30;99.90;;;;;;5111031;28;20117;-69
2023/04/21 07:17:24;;;;;;;3.10;1.00;;;21.30;99.90;;;;;;5111567;28;20036;-69
2023/04/21 07:19:50;;;;;;;6.75;1.20;;;21.50;99.90;;;;;;5110715;28;20019;-70
2023/04/21 07:22:16;;;;;;;4.68;1.30;;;21.30;99.90;;;;;;5112441;28;20027;-69
2023/04/21 07:24:42;;;;;;;6.45;1.55;;;21.80;99.90;;;;;;5110673;28;20030;-69
2023/04/21 07:27:08;;;;;;;6.65;1.77;;;21.80;99.90;;;;;;5111812;28;20105;-68
2023/04/21 07:29:36;;;;;;;6.35;1.60;;;21.70;99.90;;;;;;5111716;28;20104;-68
2023/04/21 07:32:02;;;;;;;6.57;1.65;;;21.40;99.90;;;;;;5111570;28;20046;-69
2023/04/21 07:34:28;;;;;;;6.20;1.60;;;21.80;99.90;;;;;;5111647;28;20103;-69
2023/04/21 07:36:55;;;;;;;5.43;1.73;;;21.70;99.90;;;;;;5111662;28;20070;-69
2023/04/21 07:39:23;;;;;;;5.75;1.45;;;22.10;99.90;;;;;;5111478;28;20023;-67
2023/04/21 07:41:49;;;;;;;7.05;1.73;;;21.90;99.90;;;;;;5109598;28;20488;-69
2023/04/21 07:44:17;;;;;;;7.20;1.92;;;21.90;99.90;;;;;;5111704;28;20403;-68
2023/04/21 07:46:43;;;;;;;5.57;1.33;;;22.10;99.90;;;;;;5111576;28;20043;-69
2023/04/21 07:49:09;;;;;;;7.32;1.90;;;22.10;99.90;;;;;;5111333;28;20364;-69
2023/04/21 07:51:36;;;;;;;5.88;1.50;;;22.50;99.90;;;;;;5110655;28;20038;-70
2023/04/21 07:54:02;;;;;;;6.03;1.50;;;23.00;99.90;;;;;;5110737;28;20135;-69
2023/04/21 07:56:28;;;;;;;9.77;1.50;;;22.60;99.90;;;;;;5111363;28;20456;-69
2023/04/21 07:58:54;;;;;;;6.63;2.00;;;22.20;99.90;;;;;;5111326;28;20391;-69
2023/04/21 08:01:21;;;;;;;7.07;1.50;;;22.40;99.90;;;;;;5110900;28;20061;-67
2023/04/21 08:03:47;;;;;;;10.48;1.88;;;22.40;99.90;;;;;;5109602;28;20027;-68
2023/04/21 08:06:13;;;;;;;4.78;1.23;;;22.10;99.90;;;;;;5110975;28;20088;-69
2023/04/21 08:08:39;;;;;;;8.63;1.70;;;21.90;99.90;;;;;;5110903;28;20450;-70
2023/04/21 08:11:05;;;;;;;7.05;1.40;;;22.10;99.90;;;;;;5110016;28;20019;-69
2023/04/21 08:13:32;;;;;;;8.98;1.50;;;22.00;99.90;;;;;;5111551;28;20034;-71
2023/04/21 08:15:58;;;;;;;11.93;1.67;;;21.90;99.90;;;;;;5111276;28;20023;-67
2023/04/21 08:18:24;;;;;;;8.98;1.60;;;21.80;99.90;;;;;;5111885;28;20020;-69
2023/04/21 08:20:51;;;;;;;10.88;1.50;;;21.80;99.90;;;;;;5111347;28;20027;-69
2023/04/21 08:23:17;;;;;;;10.25;1.63;;;21.50;99.90;;;;;;5111500;28;20463;-70
2023/04/21 08:25:43;;;;;;;8.00;1.70;;;22.10;99.90;;;;;;5114549;28;20088;-68
2023/04/21 08:28:09;;;;;;;6.80;1.65;;;22.90;99.90;;;;;;5115413;28;20016;-70
2023/04/21 08:30:35;;;;;;;9.80;2.30;;;23.40;99.90;;;;;;5115553;28;20016;-69
2023/04/21 08:33:01;;;;;;;8.27;1.50;;;24.20;99.90;;;;;;5115412;28;20118;-69
2023/04/21 08:35:27;;;;;;;12.20;2.10;;;24.40;99.90;;;;;;5115639;28;20031;-69
2023/04/21 08:37:55;;;;;;;10.77;1.77;;;24.30;99.90;;;;;;5115341;28;20530;-70
2023/04/21 08:40:24;;;;;;;9.65;2.22;;;24.60;99.90;;;;;;5114123;28;20019;-70
2023/04/21 08:42:50;;;;;;;10.05;1.77;;;25.40;99.90;;;;;;5113942;28;20360;-70
2023/04/21 08:45:17;;;;;;;14.00;2.30;;;25.70;99.90;;;;;;5110926;28;20494;-69
2023/04/21 08:47:43;;;;;;;23.15;2.90;;;26.20;99.90;;;;;;5115012;28;20031;-69
2023/04/21 08:50:13;;;;;;;;;;;26.30;99.90;;;;;;5114434;28;20035;-69
2023/04/21 08:52:39;;;;;;;8.23;1.85;;;25.70;99.90;;;;;;5113457;28;19911;-70
2023/04/21 08:55:06;;;;;;;9.02;2.05;;;25.70;99.90;;;;;;5114430;28;20027;-68
2023/04/21 08:57:32;;;;;;;9.57;2.40;;;25.80;99.90;;;;;;5114743;28;20523;-69
2023/04/21 08:59:58;;;;;;;14.20;2.90;;;25.60;99.90;;;;;;5114667;28;20016;-68
2023/04/21 09:02:25;;;;;;;8.68;2.50;;;25.60;99.90;;;;;;5114701;28;20058;-69
2023/04/21 09:04:54;;;;;;;7.15;2.22;;;25.20;99.90;;;;;;5114763;28;20059;-69
2023/04/21 09:07:46;;;;;;;11.05;2.55;;;25.10;99.90;;;;;;5114825;28;20062;-69
2023/04/21 09:10:12;;;;;;;13.63;2.28;;;24.80;99.90;;;;;;5110887;28;20059;-68
2023/04/21 09:12:39;;;;;;;12.93;2.40;;;24.80;99.90;;;;;;5114684;28;20042;-68
2023/04/21 09:15:09;;;;;;;8.63;2.20;;;24.70;99.90;;;;;;5114414;28;20023;-68
2023/04/21 09:17:35;;;;;;;10.70;1.90;;;25.10;99.90;;;;;;5114568;28;20035;-70
2023/04/21 09:20:17;;;;;;;10.70;2.28;;;25.10;99.90;;;;;;5115095;28;20015;-71
2023/04/21 09:22:44;;;;;;;8.30;2.28;;;25.30;99.90;;;;;;5114448;28;20036;-69
2023/04/21 09:25:15;;;;;;;;;;;25.20;99.90;;;;;;5114496;28;20102;-68
2023/04/21 09:27:41;;;;;;;10.68;1.90;;;24.80;99.90;;;;;;5114219;28;19904;-70
2023/04/21 09:30:08;;;;;;;5.78;1.67;;;25.00;99.90;;;;;;5113976;28;20028;-70
2023/04/21 09:32:38;;;;;;;9.63;1.80;;;24.90;99.90;;;;;;5114225;27;20035;-69
2023/04/21 09:35:08;;;;;;;8.30;2.08;;;25.00;99.90;;;;;;5113693;28;20023;-69
2023/04/21 09:37:37;;;;;;;5.97;1.98;;;24.70;99.90;;;;;;5113283;28;20054;-69
2023/04/21 09:40:04;;;;;;;4.68;1.63;;;24.40;99.90;;;;;;5113856;28;20098;-68
2023/04/21 09:42:31;;;;;;;7.13;1.77;;;24.50;99.90;;;;;;5113358;28;20085;-69
2023/04/21 09:44:57;;;;;;;12.98;3.25;;;24.50;99.90;;;;;;5113656;28;20406;-70
2023/04/21 09:47:27;;;;;;;11.65;2.05;;;24.30;99.90;;;;;;5113765;28;20118;-70
2023/04/21 09:49:55;;;;;;;10.30;2.00;;;24.10;99.90;;;;;;5113640;28;20027;-69
2023/04/21 09:52:22;;;;;;;12.80;1.83;;;24.10;99.90;;;;;;5113585;28;20032;-69
2023/04/21 09:54:55;;;;;;;14.13;2.22;;;24.20;99.90;;;;;;5113818;28;20047;-69
2023/04/21 09:57:25;;;;;;;6.88;1.88;;;23.90;99.90;;;;;;5113540;28;20072;-69
2023/04/21 10:00:12;;;;;;;9.30;1.90;;;23.90;99.90;;;;;;5113166;28;20163;-69
2023/04/21 10:02:43;;;;;;;6.75;1.80;;;24.20;99.90;;;;;;5111645;28;20104;-70
2023/04/21 10:05:11;;;;;;;13.20;2.20;;;24.40;99.90;;;;;;5113393;28;20101;-69
2023/04/21 10:07:37;;;;;;;10.85;1.92;;;24.90;99.90;;;;;;5113693;28;20482;-69
2023/04/21 10:10:11;;;;;;;6.88;1.38;;;24.50;99.90;;;;;;5112955;28;20027;-69
2023/04/21 10:12:38;;;;;;;14.80;2.38;;;24.40;99.90;;;;;;5113754;28;20031;-74
2023/04/21 10:15:05;;;;;;;12.52;5.13;;;24.20;99.90;;;;;;5113215;28;20043;-67
2023/04/21 10:17:35;;;;;;;10.25;2.25;;;24.10;99.90;;;;;;5113614;28;20104;-70
2023/04/21 10:20:08;;;;;;;15.45;2.22;;;24.40;99.90;;;;;;5112013;28;20451;-68
2023/04/21 10:22:35;;;;;;;8.23;2.08;;;24.60;99.90;;;;;;5113388;28;20028;-69
2023/04/21 10:25:02;;;;;;;;;;;24.30;99.90;;;;;;5113852;28;20539;-70
2023/04/21 10:27:33;;;;;;;7.28;1.90;;;24.40;99.90;;;;;;5113162;28;19926;-70
2023/04/21 10:30:00;;;;;;;11.50;2.67;;;24.30;99.90;;;;;;5112215;28;20104;-70
2023/04/21 10:32:47;;;;;;;9.15;2.00;;;24.40;99.90;;;;;;5112838;28;20031;-69
2023/04/21 10:35:18;;;;;;;14.02;2.47;;;24.30;99.90;;;;;;5112302;28;20139;-69
2023/04/21 10:37:48;;;;;;;10.18;1.90;;;24.20;99.90;;;;;;5112780;28;20164;-69
2023/04/21 10:40:29;;;;;;;9.45;2.90;;;24.20;99.90;;;;;;5113181;28;20107;-71
2023/04/21 10:42:55;;;;;;;8.57;1.90;;;24.10;99.90;;;;;;5112631;28;20067;-71
2023/04/21 10:45:24;;;;;;;8.77;2.17;;;24.20;99.90;;;;;;5112492;28;20069;-69
2023/04/21 10:47:52;;;;;;;8.32;2.00;;;24.30;99.90;;;;;;5110781;28;20020;-70
2023/04/21 10:50:21;;;;;;;11.80;1.70;;;24.20;99.90;;;;;;5112284;28;20077;-69
2023/04/21 10:52:56;;;;;;;11.98;1.90;;;24.50;99.90;;;;;;5112748;28;20114;-69
2023/04/21 10:55:26;;;;;;;7.85;1.83;;;24.20;99.90;;;;;;5112389;28;20031;-69
2023/04/21 10:57:53;;;;;;;9.35;1.58;;;24.30;99.90;;;;;;5112776;28;20030;-70
2023/04/21 11:00:21;;;;;;;8.38;1.85;;;24.40;99.90;;;;;;5112283;28;20042;-69
2023/04/21 11:02:56;;;;;;;7.65;1.88;;;24.60;99.90;;;;;;5112174;28;20031;-69
2023/04/21 11:05:48;;;;;;;10.88;2.10;;;24.80;99.90;;;;;;5112412;28;20020;-70
2023/04/21 11:08:15;;;;;;;10.50;1.88;;;24.20;99.90;;;;;;5109438;28;20361;-70
2023/04/21 11:10:52;;;;;;;6.60;1.70;;;24.30;99.90;;;;;;5112881;28;20363;-70
2023/04/21 11:13:27;;;;;;;14.30;2.40;;;24.40;99.90;;;;;;5112337;28;20031;-71
2023/04/21 11:16:07;;;;;;;10.65;2.05;;;24.40;99.90;;;;;;5112098;28;20035;-70
2023/04/21 11:18:38;;;;;;;7.22;1.85;;;24.10;99.90;;;;;;5112954;28;20030;-71
2023/04/21 11:21:16;;;;;;;18.65;2.38;;;24.00;99.90;;;;;;5112874;28;20047;-71
2023/04/21 11:23:53;;;;;;;6.10;1.77;;;23.80;99.90;;;;;;5111226;28;20024;-70
2023/04/21 11:26:31;;;;;;;8.93;2.10;;;24.10;99.90;;;;;;5112554;28;20106;-70
2023/04/21 11:29:02;;;;;;;8.63;1.85;;;24.20;99.90;;;;;;5112312;28;20073;-70
2023/04/21 11:31:29;;;;;;;7.93;1.80;;;23.80;99.90;;;;;;5112257;28;20349;-71
2023/04/21 11:33:57;;;;;;;9.63;1.80;;;24.00;99.90;;;;;;5112270;28;20046;-70
2023/04/21 11:36:23;;;;;;;9.07;2.38;;;24.10;99.90;;;;;;5112181;28;20541;-70
2023/04/21 11:38:49;;;;;;;8.45;1.77;;;24.10;99.90;;;;;;5112288;28;20063;-71
2023/04/21 11:41:22;;;;;;;11.07;2.28;;;24.00;99.90;;;;;;5111966;28;20102;-69
2023/04/21 11:43:50;;;;;;;10.82;2.90;;;23.80;99.90;;;;;;5112308;28;20028;-70
2023/04/21 11:46:24;;;;;;;6.38;2.38;;;23.50;99.90;;;;;;5112081;28;20046;-70
2023/04/21 11:49:13;;;;;;;8.70;2.20;;;23.70;99.90;;;;;;5110901;28;20031;-71
2023/04/21 11:51:43;;;;;;;8.63;2.75;;;23.50;99.90;;;;;;5110730;28;20520;-70
2023/04/21 11:54:13;;;;;;;6.93;1.85;;;23.20;99.90;;;;;;5111323;28;20055;-69
2023/04/21 11:56:42;;;;;;;17.35;2.45;;;23.20;99.90;;;;;;5111082;28;20051;-69
2023/04/21 11:59:09;;;;;;;8.98;2.38;;;23.40;99.90;;;;;;5112634;28;20073;-70
2023/04/21 12:01:56;;;;;;;9.57;2.30;;;23.70;99.90;;;;;;5116653;28;20054;-69
2023/04/21 12:04:24;;;;;;;7.40;1.98;;;23.90;99.90;;;;;;5117080;28;20035;-69
2023/04/21 12:07:00;;;;;;;7.97;2.00;;;23.80;99.90;;;;;;5116857;28;20060;-70
2023/04/21 12:09:27;;;;;;;9.30;2.00;;;23.50;99.90;;;;;;5115580;28;20023;-69
2023/04/21 12:11:56;;;;;;;7.82;1.77;;;23.60;99.90;;;;;;5117074;28;20027;-69
2023/04/21 12:14:23;;;;;;;5.35;1.80;;;24.10;99.90;;;;;;5116472;28;20043;-70
2023/04/21 12:16:54;;;;;;;8.98;1.80;;;24.00;99.90;;;;;;5116740;28;20020;-69
2023/04/21 12:19:39;;;;;;;10.23;2.33;;;23.70;99.90;;;;;;5116887;28;20035;-70
2023/04/21 12:22:13;;;;;;;6.15;1.80;;;23.30;99.90;;;;;;5114801;28;20347;-69
2023/04/21 12:24:40;;;;;;;13.05;6.75;;;23.30;99.90;;;;;;5116647;28;20088;-69
2023/04/21 12:27:07;;;;;;;13.77;6.10;;;23.50;99.90;;;;;;5116724;28;20022;-69
2023/04/21 12:29:37;;;;;;;14.30;3.65;;;23.60;99.90;;;;;;5116631;28;20030;-69
2023/04/21 12:32:07;;;;;;;7.22;2.70;;;23.70;99.90;;;;;;5117330;28;20015;-70
2023/04/21 12:34:34;;;;;;;12.88;3.40;;;23.60;99.90;;;;;;5116696;28;20085;-69
2023/04/21 12:37:00;;;;;;;8.75;2.42;;;23.80;99.90;;;;;;5116633;28;20098;-68
2023/04/21 12:39:26;;;;;;;6.65;1.90;;;24.00;99.90;;;;;;5116621;28;20033;-70
2023/04/21 12:41:54;;;;;;;6.80;2.22;;;23.90;99.90;;;;;;5116614;28;20154;-70
2023/04/21 12:44:20;;;;;;;11.50;2.17;;;23.90;99.90;;;;;;5116645;28;20129;-70
2023/04/21 12:46:47;;;;;;;10.48;2.30;;;23.80;99.90;;;;;;5117126;28;20193;-69
2023/04/21 12:49:21;;;;;;;8.55;2.10;;;23.70;99.90;;;;;;5116429;27;20023;-69